createdAt,value
2023-02-09T00:00:13.230Z,7.30
2023-02-09T00:02:42.832Z,7.00
2023-02-09T00:05:10.503Z,6.90
2023-02-09T00:07:37.362Z,7.30
2023-02-09T00:10:05.741Z,7.30
2023-02-09T00:12:53.813Z,7.30
2023-02-09T00:15:20.686Z,6.20
2023-02-09T00:17:49.810Z,6.30
2023-02-09T00:20:16.656Z,6.70
2023-02-09T00:22:43.515Z,7.30
2023-02-09T00:25:10.355Z,7.00
2023-02-09T00:27:37.092Z,7.10
2023-02-09T00:30:04.858Z,6.20
2023-02-09T00:32:32.841Z,6.00
2023-02-09T00:34:59.799Z,6.70
2023-02-09T00:37:26.842Z,6.00
2023-02-09T00:39:53.799Z,5.00
2023-02-09T00:42:20.634Z,5.60
2023-02-09T00:44:47.432Z,5.30
2023-02-09T00:47:14.195Z,6.40
2023-02-09T00:49:40.951Z,5.70
2023-02-09T00:52:09.813Z,5.60
2023-02-09T00:54:37.093Z,6.00
2023-02-09T00:57:05.609Z,6.10
2023-02-09T00:59:34.335Z,6.50
2023-02-09T01:02:01.765Z,6.30
2023-02-09T01:04:28.851Z,6.20
2023-02-09T01:06:55.851Z,5.40
2023-02-09T01:09:22.702Z,5.40
2023-02-09T01:11:49.642Z,6.20
2023-02-09T01:14:17.089Z,5.10
2023-02-09T01:16:46.225Z,5.70
2023-02-09T01:19:14.323Z,5.80
2023-02-09T01:21:42.065Z,5.70
2023-02-09T01:24:13.186Z,5.30
2023-02-09T01:26:40.446Z,6.20
2023-02-09T01:29:07.397Z,5.40
2023-02-09T01:31:36.191Z,5.50
2023-02-09T01:34:04.580Z,5.70
2023-02-09T01:36:33.157Z,5.70
2023-02-09T01:39:01.888Z,6.40
2023-02-09T01:41:28.988Z,5.60
2023-02-09T01:44:02.137Z,5.70
2023-02-09T01:46:34.237Z,5.00
2023-02-09T01:49:10.009Z,5.40
2023-02-09T01:51:41.095Z,5.40
2023-02-09T01:54:11.026Z,5.10
2023-02-09T01:56:39.881Z,4.60
2023-02-09T01:59:08.042Z,5.90
2023-02-09T02:01:34.861Z,5.70
2023-02-09T02:04:02.344Z,6.00
2023-02-09T02:06:29.492Z,5.10
2023-02-09T02:09:03.616Z,5.60
2023-02-09T02:11:32.990Z,5.30
2023-02-09T02:13:59.953Z,5.50
2023-02-09T02:16:46.490Z,5.60
2023-02-09T02:19:38.371Z,5.60
2023-02-09T02:22:33.359Z,5.20
2023-02-09T02:25:32.236Z,5.60
2023-02-09T02:28:23.159Z,5.90
2023-02-09T02:30:56.623Z,6.00
2023-02-09T02:33:33.314Z,5.30
2023-02-09T02:36:32.258Z,5.40
2023-02-09T02:39:17.850Z,5.20
2023-02-09T02:42:17.683Z,5.50
2023-02-09T02:44:57.930Z,5.20
2023-02-09T02:47:26.290Z,5.30
2023-02-09T02:49:59.917Z,5.30
2023-02-09T02:52:26.837Z,4.90
2023-02-09T02:55:05.662Z,4.50
2023-02-09T02:57:33.940Z,5.30
2023-02-09T03:00:12.272Z,5.70
2023-02-09T03:02:42.589Z,5.50
2023-02-09T03:05:12.015Z,4.50
2023-02-09T03:07:38.928Z,5.10
2023-02-09T03:10:35.101Z,5.50
2023-02-09T03:13:08.491Z,5.60
2023-02-09T03:15:38.348Z,5.90
2023-02-09T03:18:19.972Z,5.40
2023-02-09T03:20:57.650Z,6.10
2023-02-09T03:23:46.777Z,5.20
2023-02-09T03:26:18.782Z,6.10
2023-02-09T03:28:46.401Z,5.20
2023-02-09T03:31:15.858Z,5.50
2023-02-09T03:33:43.060Z,5.70
2023-02-09T03:36:14.724Z,5.00
2023-02-09T03:38:41.702Z,5.40
2023-02-09T03:41:08.633Z,5.30
2023-02-09T03:43:54.410Z,5.50
2023-02-09T03:46:21.378Z,5.30
2023-02-09T03:48:50.064Z,5.80
2023-02-09T03:51:17.196Z,5.70
2023-02-09T03:53:44.040Z,5.80
2023-02-09T03:56:10.879Z,5.60
2023-02-09T03:58:38.042Z,5.50
2023-02-09T04:01:08.120Z,5.70
2023-02-09T04:03:35.976Z,5.70
2023-02-09T04:06:04.000Z,6.10
2023-02-09T04:08:30.756Z,6.80
2023-02-09T04:10:57.909Z,6.10
2023-02-09T04:13:25.667Z,5.90
2023-02-09T04:15:52.844Z,6.20
2023-02-09T04:18:19.703Z,5.60
2023-02-09T04:20:46.904Z,5.20
2023-02-09T04:23:15.260Z,5.70
2023-02-09T04:25:42.357Z,6.30
2023-02-09T04:28:11.823Z,5.80
2023-02-09T04:30:38.682Z,6.00
2023-02-09T04:33:05.509Z,6.00
2023-02-09T04:35:32.304Z,5.90
2023-02-09T04:37:59.157Z,5.70
2023-02-09T04:40:26.092Z,5.60
2023-02-09T04:42:52.872Z,5.30
2023-02-09T04:45:19.702Z,6.30
2023-02-09T04:47:46.469Z,5.50
2023-02-09T04:50:13.386Z,5.60
2023-02-09T04:52:40.241Z,5.40
2023-02-09T04:55:07.289Z,5.70
2023-02-09T04:57:55.297Z,5.20
2023-02-09T05:00:22.262Z,5.60
2023-02-09T05:02:48.993Z,5.40
2023-02-09T05:05:15.854Z,5.90
2023-02-09T05:07:42.599Z,5.30
2023-02-09T05:10:09.533Z,5.70
2023-02-09T05:12:36.290Z,5.50
2023-02-09T05:15:03.138Z,5.70
2023-02-09T05:17:32.231Z,5.70
2023-02-09T05:19:59.810Z,4.90
2023-02-09T05:22:27.006Z,5.20
2023-02-09T05:24:54.005Z,5.50
2023-02-09T05:27:20.847Z,5.90
2023-02-09T05:29:47.663Z,6.00
2023-02-09T05:32:14.574Z,5.50
2023-02-09T05:34:41.428Z,5.00
2023-02-09T05:37:08.280Z,5.60
2023-02-09T05:39:34.999Z,5.60
2023-02-09T05:42:17.067Z,5.30
2023-02-09T05:44:49.051Z,6.10
2023-02-09T05:47:17.937Z,5.60
2023-02-09T05:49:44.798Z,5.60
2023-02-09T05:52:12.234Z,5.10
2023-02-09T05:54:39.015Z,6.10
2023-02-09T05:57:06.342Z,5.90
2023-02-09T05:59:33.290Z,5.10
2023-02-09T06:02:00.245Z,6.20
2023-02-09T06:04:30.155Z,5.10
2023-02-09T06:06:57.352Z,5.40
2023-02-09T06:09:24.157Z,5.70
2023-02-09T06:11:50.957Z,5.60
2023-02-09T06:14:18.286Z,5.40
2023-02-09T06:16:45.200Z,4.70
2023-02-09T06:19:14.400Z,5.80
2023-02-09T06:21:41.339Z,5.00
2023-02-09T06:24:08.602Z,5.30
2023-02-09T06:26:36.061Z,5.60
2023-02-09T06:29:03.847Z,6.30
2023-02-09T06:31:30.861Z,6.10
2023-02-09T06:33:57.724Z,5.50
2023-02-09T06:36:24.577Z,5.50
2023-02-09T06:38:51.433Z,6.40
2023-02-09T06:41:18.354Z,6.40
2023-02-09T06:43:45.238Z,5.90
2023-02-09T06:46:13.366Z,6.70
2023-02-09T06:48:40.608Z,6.60
2023-02-09T06:51:13.015Z,6.60
2023-02-09T06:53:43.051Z,7.20
2023-02-09T06:56:10.825Z,5.90
2023-02-09T06:58:38.184Z,7.10
2023-02-09T07:01:07.103Z,6.30
2023-02-09T07:03:33.924Z,6.60
2023-02-09T07:06:05.923Z,5.70
2023-02-09T07:08:32.835Z,7.20
2023-02-09T07:11:04.485Z,5.70
2023-02-09T07:13:32.155Z,6.70
2023-02-09T07:16:01.177Z,6.80
2023-02-09T07:18:28.629Z,6.20
2023-02-09T07:21:07.325Z,7.30
2023-02-09T07:23:34.366Z,6.70
2023-02-09T07:26:05.399Z,7.00
2023-02-09T07:28:33.024Z,6.60
2023-02-09T07:31:06.146Z,7.00
2023-02-09T07:33:33.947Z,6.80
2023-02-09T07:36:03.660Z,7.50
2023-02-09T07:38:30.993Z,7.10
2023-02-09T07:41:03.089Z,6.50
2023-02-09T07:43:30.226Z,7.40
2023-02-09T07:46:04.960Z,7.30
2023-02-09T07:48:32.620Z,7.40
2023-02-09T07:50:59.532Z,7.40
2023-02-09T07:53:26.928Z,7.70
2023-02-09T07:55:54.328Z,7.80
2023-02-09T07:58:22.125Z,7.30
2023-02-09T08:00:50.324Z,7.90
2023-02-09T08:03:20.464Z,6.80
2023-02-09T08:06:26.010Z,7.50
2023-02-09T08:08:57.471Z,7.10
2023-02-09T08:11:31.848Z,6.70
2023-02-09T08:14:03.302Z,7.50
2023-02-09T08:16:32.441Z,7.00
2023-02-09T08:19:04.265Z,6.60
2023-02-09T08:21:33.566Z,7.60
2023-02-09T08:24:00.932Z,6.10
2023-02-09T08:26:27.759Z,6.70
2023-02-09T08:28:54.844Z,6.20
2023-02-09T08:31:22.455Z,6.10
2023-02-09T08:33:50.254Z,6.70
2023-02-09T08:36:18.534Z,7.00
2023-02-09T08:38:48.470Z,7.00
2023-02-09T08:41:16.789Z,7.00
2023-02-09T08:43:51.791Z,7.80
2023-02-09T08:46:19.796Z,7.10
2023-02-09T08:48:47.738Z,7.30
2023-02-09T08:51:15.532Z,6.80
2023-02-09T08:53:43.550Z,7.20
2023-02-09T08:56:10.515Z,8.70
2023-02-09T08:58:37.358Z,6.90
2023-02-09T09:01:05.617Z,6.80
2023-02-09T09:03:33.552Z,6.90
2023-02-09T09:06:02.878Z,7.00
2023-02-09T09:08:30.990Z,7.20
2023-02-09T09:10:58.344Z,7.70
2023-02-09T09:13:26.311Z,6.40
2023-02-09T09:15:55.267Z,6.60
2023-02-09T09:18:24.576Z,7.70
2023-02-09T09:20:52.478Z,6.50
2023-02-09T09:23:21.300Z,7.20
2023-02-09T09:25:48.843Z,7.50
2023-02-09T09:28:16.095Z,6.70
2023-02-09T09:30:43.320Z,8.40
2023-02-09T09:33:12.739Z,8.40
2023-02-09T09:35:39.595Z,6.90
2023-02-09T09:38:06.356Z,7.20
2023-02-09T09:40:37.489Z,7.30
2023-02-09T09:43:20.603Z,6.80
2023-02-09T09:45:48.379Z,6.80
2023-02-09T09:48:27.190Z,7.40
2023-02-09T09:50:59.357Z,6.80
2023-02-09T09:53:33.312Z,6.50
2023-02-09T09:56:06.663Z,7.60
2023-02-09T09:58:34.939Z,7.10
2023-02-09T10:01:02.022Z,6.70
2023-02-09T10:03:29.161Z,6.80
2023-02-09T10:06:00.590Z,7.40
2023-02-09T10:08:30.415Z,7.70
2023-02-09T10:11:10.501Z,7.30
2023-02-09T10:13:50.587Z,6.70
2023-02-09T10:16:20.711Z,6.40
2023-02-09T10:18:55.457Z,7.20
2023-02-09T10:21:24.825Z,6.90
2023-02-09T10:24:00.814Z,7.90
2023-02-09T10:26:32.993Z,7.40
2023-02-09T10:29:08.526Z,7.00
2023-02-09T10:31:40.589Z,7.40
2023-02-09T10:34:17.292Z,7.60
2023-02-09T10:36:52.515Z,6.40
2023-02-09T10:39:31.846Z,6.60
2023-02-09T10:42:14.167Z,6.80
2023-02-09T10:44:49.697Z,6.60
2023-02-09T10:47:19.601Z,7.90
2023-02-09T10:50:03.222Z,7.30
2023-02-09T10:52:35.702Z,7.10
2023-02-09T10:55:15.577Z,7.70
2023-02-09T10:57:45.670Z,7.30
2023-02-09T11:00:15.262Z,7.90
2023-02-09T11:02:49.284Z,8.20
2023-02-09T11:05:22.199Z,8.80
2023-02-09T11:07:55.884Z,7.80
2023-02-09T11:10:23.077Z,8.00
2023-02-09T11:12:49.883Z,7.50
2023-02-09T11:15:24.117Z,7.50
2023-02-09T11:17:54.555Z,8.10
2023-02-09T11:20:38.048Z,8.10
2023-02-09T11:23:26.595Z,7.50
2023-02-09T11:25:59.784Z,7.80
2023-02-09T11:28:32.866Z,7.30
2023-02-09T11:31:18.086Z,8.70
2023-02-09T11:34:06.909Z,8.30
2023-02-09T11:36:46.025Z,8.70
2023-02-09T11:39:51.247Z,9.30
2023-02-09T11:42:46.119Z,7.60
2023-02-09T11:45:23.615Z,8.50
2023-02-09T11:47:56.548Z,8.60
2023-02-09T11:50:26.206Z,8.80
2023-02-09T11:52:57.193Z,8.50
2023-02-09T11:55:39.042Z,8.50
2023-02-09T11:58:31.910Z,9.00
2023-02-09T12:01:14.817Z,9.20
2023-02-09T12:03:53.511Z,9.00
2023-02-09T12:06:23.235Z,9.00
2023-02-09T12:09:18.964Z,9.30
2023-02-09T12:12:07.328Z,8.70
2023-02-09T12:15:12.197Z,9.40
2023-02-09T12:17:55.400Z,9.40
2023-02-09T12:20:37.591Z,9.20
2023-02-09T12:23:34.999Z,9.20
2023-02-09T12:26:17.387Z,10.20
2023-02-09T12:29:21.072Z,9.30
2023-02-09T12:32:14.197Z,10.00
2023-02-09T12:34:53.178Z,9.50
2023-02-09T12:37:28.305Z,9.70
2023-02-09T12:40:04.997Z,10.60
2023-02-09T12:43:01.545Z,10.20
2023-02-09T12:45:39.426Z,9.00
2023-02-09T12:48:09.337Z,10.10
2023-02-09T12:50:42.338Z,10.00
2023-02-09T12:53:24.563Z,13.80
2023-02-09T12:56:17.980Z,11.20
2023-02-09T12:58:44.701Z,9.70
2023-02-09T13:01:13.217Z,10.70
2023-02-09T13:04:02.027Z,11.90
2023-02-09T13:06:44.450Z,12.00
2023-02-09T13:09:19.431Z,11.50
2023-02-09T13:11:49.434Z,10.90
2023-02-09T13:14:17.445Z,11.50
2023-02-09T13:17:08.812Z,11.80
2023-02-09T13:19:49.660Z,10.90
2023-02-09T13:22:23.006Z,11.70
2023-02-09T13:25:01.282Z,11.50
2023-02-09T13:27:29.960Z,11.20
2023-02-09T13:29:58.767Z,12.10
2023-02-09T13:32:54.041Z,12.00
2023-02-09T13:37:57.243Z,11.20
2023-02-09T13:40:25.536Z,12.20
2023-02-09T13:43:10.784Z,13.00
2023-02-09T13:45:49.995Z,13.00
2023-02-09T13:48:35.501Z,12.80
2023-02-09T13:51:13.963Z,13.00
2023-02-09T13:53:40.863Z,12.70
2023-02-09T13:56:09.887Z,12.40
2023-02-09T13:58:38.198Z,12.00
2023-02-09T14:01:09.202Z,13.10
2023-02-09T14:03:56.713Z,12.40
2023-02-09T14:06:47.708Z,11.90
2023-02-09T14:09:28.385Z,12.80
2023-02-09T14:12:16.891Z,13.20
2023-02-09T14:15:09.612Z,12.60
2023-02-09T14:17:37.954Z,13.40
2023-02-09T14:20:21.634Z,13.20
2023-02-09T14:23:00.353Z,13.10
2023-02-09T14:25:31.513Z,12.70
2023-02-09T14:27:58.702Z,13.20
2023-02-09T14:30:29.692Z,12.70
2023-02-09T14:32:58.253Z,12.40
2023-02-09T14:35:29.146Z,14.40
2023-02-09T14:37:58.153Z,13.20
2023-02-09T14:40:31.874Z,13.40
2023-02-09T14:43:11.104Z,13.60
2023-02-09T14:45:47.779Z,13.40
2023-02-09T14:48:16.513Z,12.80
2023-02-09T14:50:43.361Z,13.40
2023-02-09T14:53:13.784Z,14.40
2023-02-09T14:55:40.692Z,13.30
2023-02-09T14:58:31.238Z,13.50
2023-02-09T15:01:03.002Z,12.90
2023-02-09T15:03:29.944Z,13.20
2023-02-09T15:06:03.046Z,14.50
2023-02-09T15:08:31.736Z,14.80
2023-02-09T15:11:24.685Z,16.50
2023-02-09T15:13:56.104Z,16.20
2023-02-09T15:16:23.103Z,15.40
2023-02-09T15:18:49.999Z,14.40
2023-02-09T15:21:16.779Z,15.30
2023-02-09T15:23:43.708Z,15.20
2023-02-09T15:26:16.578Z,13.80
2023-02-09T15:28:43.631Z,14.70
2023-02-09T15:31:15.956Z,14.60
2023-02-09T15:33:43.791Z,13.50
2023-02-09T15:36:16.523Z,14.30
2023-02-09T15:38:45.448Z,13.00
2023-02-09T15:41:30.827Z,14.40
2023-02-09T15:44:16.321Z,14.40
2023-02-09T15:47:04.486Z,14.70
2023-02-09T15:49:32.192Z,14.70
2023-02-09T15:51:59.144Z,13.40
2023-02-09T15:54:29.982Z,13.40
2023-02-09T15:56:57.027Z,14.60
2023-02-09T15:59:24.403Z,15.60
2023-02-09T16:01:53.494Z,14.40
2023-02-09T16:04:20.433Z,14.70
2023-02-09T16:06:51.719Z,13.70
2023-02-09T16:09:24.255Z,14.50
2023-02-09T16:11:51.322Z,14.20
2023-02-09T16:14:20.727Z,15.60
2023-02-09T16:16:48.571Z,14.80
2023-02-09T16:19:15.388Z,16.90
2023-02-09T16:21:44.541Z,18.70
2023-02-09T16:24:29.477Z,19.10
2023-02-09T16:29:26.161Z,16.10
2023-02-09T16:31:53.523Z,15.90
2023-02-09T16:34:20.522Z,17.60
2023-02-09T16:36:48.713Z,15.70
2023-02-09T16:39:20.363Z,15.80
2023-02-09T16:41:52.978Z,16.10
2023-02-09T16:44:21.654Z,15.20
2023-02-09T16:46:53.840Z,15.60
2023-02-09T16:49:31.265Z,15.90
2023-02-09T16:52:02.736Z,16.00
2023-02-09T16:54:30.857Z,15.50
2023-02-09T16:57:01.031Z,14.40
2023-02-09T16:59:30.061Z,15.50
2023-02-09T17:01:59.989Z,15.80
2023-02-09T17:04:27.566Z,15.10
2023-02-09T17:06:54.314Z,15.30
2023-02-09T17:09:21.150Z,16.50
2023-02-09T17:11:47.893Z,16.20
2023-02-09T17:14:14.711Z,16.30
2023-02-09T17:16:49.681Z,16.20
2023-02-09T17:19:18.341Z,16.50
2023-02-09T17:21:45.421Z,17.90
2023-02-09T17:24:16.988Z,17.20
2023-02-09T17:26:47.216Z,17.00
2023-02-09T17:29:14.140Z,17.30
2023-02-09T17:31:52.805Z,16.10
2023-02-09T17:34:20.795Z,18.20
2023-02-09T17:36:47.572Z,17.40
2023-02-09T17:39:16.981Z,18.50
2023-02-09T17:41:46.573Z,17.60
2023-02-09T17:44:35.416Z,17.50
2023-02-09T17:47:08.857Z,18.60
2023-02-09T17:49:35.682Z,15.90
2023-02-09T17:52:02.635Z,18.70
2023-02-09T17:54:29.581Z,17.10
2023-02-09T17:56:56.531Z,17.30
2023-02-09T17:59:23.440Z,17.50
2023-02-09T18:01:50.467Z,17.30
2023-02-09T18:04:24.910Z,17.60
2023-02-09T18:06:51.935Z,18.70
2023-02-09T18:09:19.327Z,16.70
2023-02-09T18:11:52.388Z,19.40
2023-02-09T18:14:21.045Z,17.30
2023-02-09T18:16:48.351Z,17.90
2023-02-09T18:19:18.671Z,18.10
2023-02-09T18:21:56.882Z,17.40
2023-02-09T18:24:26.135Z,17.90
2023-02-09T18:26:53.080Z,17.90
2023-02-09T18:29:29.335Z,18.20
2023-02-09T18:31:58.338Z,17.90
2023-02-09T18:34:25.487Z,18.90
2023-02-09T18:36:52.298Z,16.90
2023-02-09T18:39:21.784Z,19.10
2023-02-09T18:41:59.872Z,17.70
2023-02-09T18:44:29.589Z,17.80
2023-02-09T18:46:57.662Z,20.00
2023-02-09T18:49:24.508Z,19.30
2023-02-09T18:51:53.591Z,19.00
2023-02-09T18:54:20.523Z,18.80
2023-02-09T18:56:47.474Z,18.20
2023-02-09T18:59:14.330Z,17.40
2023-02-09T19:01:43.522Z,18.20
2023-02-09T19:04:10.464Z,19.90
2023-02-09T19:06:37.628Z,19.10
2023-02-09T19:09:04.593Z,19.10
2023-02-09T19:11:31.376Z,20.50
2023-02-09T19:14:16.586Z,19.30
2023-02-09T19:16:43.537Z,20.10
2023-02-09T19:19:12.419Z,19.40
2023-02-09T19:21:39.384Z,18.70
2023-02-09T19:24:06.750Z,20.20
2023-02-09T19:26:33.591Z,20.70
2023-02-09T19:29:00.449Z,21.00
2023-02-09T19:31:27.308Z,19.70
2023-02-09T19:33:56.627Z,19.70
2023-02-09T19:36:25.292Z,18.90
2023-02-09T19:38:52.076Z,19.00
2023-02-09T19:41:20.555Z,20.30
2023-02-09T19:43:47.451Z,19.20
2023-02-09T19:46:14.368Z,19.90
2023-02-09T19:48:41.471Z,18.80
2023-02-09T19:51:08.649Z,20.30
2023-02-09T19:53:35.661Z,18.80
2023-02-09T19:56:02.618Z,20.20
2023-02-09T19:58:29.397Z,19.70
2023-02-09T20:00:56.718Z,19.50
2023-02-09T20:03:24.538Z,19.40
2023-02-09T20:05:53.846Z,20.50
2023-02-09T20:08:20.837Z,20.80
2023-02-09T20:10:47.965Z,20.50
2023-02-09T20:13:15.856Z,19.50
2023-02-09T20:15:44.163Z,19.50
2023-02-09T20:18:13.671Z,19.90
2023-02-09T20:20:43.217Z,18.70
2023-02-09T20:23:10.332Z,19.90
2023-02-09T20:25:40.635Z,19.40
2023-02-09T20:28:07.608Z,21.20
2023-02-09T20:30:34.946Z,19.40
2023-02-09T20:33:01.790Z,19.70
2023-02-09T20:35:28.534Z,21.10
2023-02-09T20:37:55.494Z,20.80
2023-02-09T20:40:22.836Z,20.50
2023-02-09T20:43:08.402Z,19.60
2023-02-09T20:45:53.822Z,19.50
2023-02-09T20:48:20.748Z,20.30
2023-02-09T20:50:47.706Z,22.40
2023-02-09T20:53:14.941Z,19.30
2023-02-09T20:55:42.923Z,20.20
2023-02-09T20:58:13.567Z,20.80
2023-02-09T21:00:43.642Z,20.20
2023-02-09T21:03:11.670Z,20.50
2023-02-09T21:05:38.595Z,19.90
2023-02-09T21:08:06.972Z,20.10
2023-02-09T21:10:35.538Z,21.20
2023-02-09T21:13:04.142Z,20.00
2023-02-09T21:15:30.939Z,21.30
2023-02-09T21:17:57.864Z,20.80
2023-02-09T21:20:24.681Z,21.00
2023-02-09T21:22:51.848Z,21.30
2023-02-09T21:25:21.962Z,20.50
2023-02-09T21:27:48.756Z,21.70
2023-02-09T21:30:16.671Z,21.50
2023-02-09T21:32:43.726Z,21.50
2023-02-09T21:35:11.220Z,20.10
2023-02-09T21:37:39.033Z,20.60
2023-02-09T21:40:07.133Z,20.10
2023-02-09T21:42:35.639Z,21.00
2023-02-09T21:45:02.878Z,23.10
2023-02-09T21:47:32.478Z,21.90
2023-02-09T21:50:02.500Z,24.20
2023-02-09T21:52:30.156Z,22.70
2023-02-09T21:54:57.371Z,22.70
2023-02-09T21:57:24.214Z,22.50
2023-02-09T21:59:51.012Z,23.40
2023-02-09T22:02:18.654Z,24.20
2023-02-09T22:04:46.686Z,23.30
2023-02-09T22:07:14.570Z,23.80
2023-02-09T22:09:41.677Z,21.80
2023-02-09T22:12:13.045Z,20.40
2023-02-09T22:14:39.767Z,20.60
2023-02-09T22:17:06.511Z,20.30
2023-02-09T22:19:33.357Z,20.90
2023-02-09T22:22:01.664Z,22.30
2023-02-09T22:24:30.113Z,21.70
2023-02-09T22:26:56.838Z,21.70
2023-02-09T22:29:24.635Z,22.40
2023-02-09T22:31:51.477Z,21.80
2023-02-09T22:34:18.298Z,21.20
2023-02-09T22:36:45.577Z,21.30
2023-02-09T22:39:13.041Z,22.20
2023-02-09T22:41:47.558Z,20.30
2023-02-09T22:44:15.942Z,20.80
2023-02-09T22:46:44.198Z,24.20
2023-02-09T22:49:18.326Z,21.90
2023-02-09T22:51:46.521Z,24.00
2023-02-09T22:54:15.677Z,21.80
2023-02-09T22:56:42.911Z,22.70
2023-02-09T22:59:12.106Z,22.20
2023-02-09T23:01:45.213Z,21.70
2023-02-09T23:04:12.337Z,23.40
2023-02-09T23:06:39.488Z,21.40
2023-02-09T23:09:08.071Z,22.70
2023-02-09T23:11:35.830Z,22.20
2023-02-09T23:14:09.534Z,20.50
2023-02-09T23:16:37.588Z,22.30
2023-02-09T23:19:09.122Z,20.30
2023-02-09T23:21:38.757Z,19.10
2023-02-09T23:24:09.319Z,23.80
2023-02-09T23:26:36.982Z,20.30
2023-02-09T23:29:07.063Z,20.70
2023-02-09T23:31:34.605Z,21.10
2023-02-09T23:34:01.676Z,21.20
2023-02-09T23:36:31.406Z,21.70
2023-02-09T23:39:01.324Z,22.30
2023-02-09T23:41:31.046Z,22.00
2023-02-09T23:43:58.612Z,21.60
2023-02-09T23:46:28.673Z,20.10
2023-02-09T23:48:56.437Z,22.60
2023-02-09T23:51:29.793Z,21.50
2023-02-09T23:53:58.486Z,21.90
2023-02-09T23:56:26.379Z,22.80
2023-02-09T23:58:54.326Z,23.10
